createdAt,value
2023-01-15T00:01:42.887Z,86.50
2023-01-15T00:04:53.903Z,86.53
2023-01-15T00:08:05.026Z,86.55
2023-01-15T00:11:16.595Z,86.42
2023-01-15T00:14:27.394Z,86.57
2023-01-15T00:17:38.700Z,86.64
2023-01-15T00:20:50.068Z,86.74
2023-01-15T00:24:25.022Z,86.96
2023-01-15T00:27:44.202Z,87.11
2023-01-15T00:30:55.400Z,87.11
2023-01-15T00:34:06.372Z,87.25
2023-01-15T00:37:17.252Z,87.13
2023-01-15T00:40:28.603Z,87.15
2023-01-15T00:43:39.486Z,87.26
2023-01-15T00:46:51.166Z,87.13
2023-01-15T00:50:02.148Z,87.19
2023-01-15T00:53:13.004Z,87.23
2023-01-15T00:56:23.826Z,87.14
2023-01-15T00:59:35.100Z,87.17
2023-01-15T01:02:46.850Z,87.10
2023-01-15T01:06:01.138Z,87.19
2023-01-15T01:09:14.659Z,87.37
2023-01-15T01:12:26.673Z,87.44
2023-01-15T01:15:38.269Z,87.38
2023-01-15T01:18:49.655Z,87.29
2023-01-15T01:22:00.645Z,87.25
2023-01-15T01:25:12.162Z,87.22
2023-01-15T01:28:23.011Z,87.08
2023-01-15T01:31:33.973Z,87.01
2023-01-15T01:34:45.022Z,87.02
2023-01-15T01:37:55.899Z,87.05
2023-01-15T01:41:07.037Z,87.21
2023-01-15T01:44:35.180Z,87.38
2023-01-15T01:47:46.008Z,87.31
2023-01-15T01:50:57.989Z,87.27
2023-01-15T01:54:10.410Z,87.34
2023-01-15T01:57:22.537Z,87.34
2023-01-15T02:00:34.543Z,87.37
2023-01-15T02:03:46.574Z,87.32
2023-01-15T02:06:59.124Z,87.31
2023-01-15T02:10:15.080Z,87.19
2023-01-15T02:17:04.943Z,86.93
2023-01-15T02:20:24.120Z,87.01
2023-01-15T02:23:48.308Z,87.19
2023-01-15T02:27:02.558Z,87.08
2023-01-15T02:30:17.721Z,87.08
2023-01-15T02:33:32.970Z,87.03
2023-01-15T02:36:46.614Z,87.02
2023-01-15T02:39:59.665Z,87.28
2023-01-15T02:43:11.789Z,87.52
2023-01-15T02:46:24.491Z,87.62
2023-01-15T02:49:37.379Z,87.64
2023-01-15T02:52:50.947Z,87.76
2023-01-15T02:56:04.591Z,87.84
2023-01-15T02:59:20.093Z,87.70
2023-01-15T03:02:34.152Z,87.79
2023-01-15T03:05:50.459Z,87.68
2023-01-15T03:09:01.846Z,87.79
2023-01-15T03:12:17.200Z,87.77
2023-01-15T03:15:43.271Z,87.70
2023-01-15T03:18:56.914Z,87.73
2023-01-15T03:22:10.809Z,87.85
2023-01-15T03:25:25.109Z,88.01
2023-01-15T03:28:37.915Z,87.95
2023-01-15T03:31:50.315Z,87.87
2023-01-15T03:35:04.495Z,87.69
2023-01-15T03:38:16.500Z,87.84
2023-01-15T03:41:31.941Z,87.78
2023-01-15T03:44:48.392Z,87.99
2023-01-15T03:48:03.554Z,88.13
2023-01-15T03:51:18.468Z,88.28
2023-01-15T03:54:34.153Z,88.19
2023-01-15T03:57:49.585Z,88.21
2023-01-15T04:01:02.580Z,88.21
2023-01-15T04:04:15.453Z,88.18
2023-01-15T04:07:27.198Z,88.12
2023-01-15T04:10:38.689Z,88.28
2023-01-15T04:13:49.597Z,88.27
2023-01-15T04:17:03.464Z,88.23
2023-01-15T04:20:14.735Z,88.18
2023-01-15T04:23:25.509Z,88.18
2023-01-15T04:26:36.300Z,87.99
2023-01-15T04:29:47.095Z,87.85
2023-01-15T04:32:58.377Z,87.90
2023-01-15T04:36:10.257Z,87.95
2023-01-15T04:39:21.075Z,87.92
2023-01-15T04:42:49.591Z,87.81
2023-01-15T04:46:01.303Z,87.75
2023-01-15T04:49:13.336Z,87.78
2023-01-15T04:52:24.144Z,87.93
2023-01-15T04:55:35.410Z,87.98
2023-01-15T04:58:45.977Z,88.09
2023-01-15T05:02:05.027Z,88.09
2023-01-15T05:05:28.226Z,88.08
2023-01-15T05:08:39.170Z,88.02
2023-01-15T05:11:50.451Z,87.92
2023-01-15T05:15:01.341Z,87.91
2023-01-15T05:18:15.290Z,87.88
2023-01-15T05:21:26.952Z,87.74
2023-01-15T05:24:37.949Z,87.69
2023-01-15T05:27:49.106Z,87.60
2023-01-15T05:30:59.954Z,87.48
2023-01-15T05:34:11.168Z,87.44
2023-01-15T05:37:22.602Z,87.41
2023-01-15T05:40:33.500Z,87.38
2023-01-15T05:43:44.782Z,87.22
2023-01-15T05:46:56.710Z,87.18
2023-01-15T05:50:00.713Z,87.05
2023-01-15T05:53:11.998Z,86.98
2023-01-15T05:56:23.247Z,87.05
2023-01-15T05:59:35.392Z,87.02
2023-01-15T06:02:49.970Z,86.96
2023-01-15T06:06:00.765Z,87.00
2023-01-15T06:09:12.313Z,86.82
2023-01-15T06:12:23.236Z,86.73
2023-01-15T06:15:34.097Z,86.65
2023-01-15T06:18:44.852Z,86.62
2023-01-15T06:21:56.118Z,86.64
2023-01-15T06:25:07.571Z,86.66
2023-01-15T06:28:18.673Z,86.75
2023-01-15T06:31:29.963Z,86.85
2023-01-15T06:34:43.482Z,86.92
2023-01-15T06:37:54.570Z,86.99
2023-01-15T06:41:27.870Z,87.06
2023-01-15T06:44:55.243Z,87.29
2023-01-15T06:48:07.465Z,87.35
2023-01-15T06:51:20.641Z,87.42
2023-01-15T06:54:32.916Z,87.60
2023-01-15T06:57:43.972Z,87.81
2023-01-15T07:00:56.869Z,88.08
2023-01-15T07:04:07.850Z,88.27
2023-01-15T07:07:20.944Z,88.56
2023-01-15T07:10:32.105Z,88.96
2023-01-15T07:13:43.575Z,89.19
2023-01-15T07:16:54.397Z,89.39
2023-01-15T07:20:06.468Z,89.53
2023-01-15T07:23:17.656Z,89.99
2023-01-15T07:26:29.390Z,90.16
2023-01-15T07:29:40.195Z,90.59
2023-01-15T07:32:51.472Z,90.90
2023-01-15T07:36:05.350Z,91.24
2023-01-15T07:39:16.260Z,91.36
2023-01-15T07:42:45.054Z,91.43
2023-01-15T07:46:13.380Z,91.77
2023-01-15T07:49:42.078Z,91.88
2023-01-15T07:52:53.921Z,92.08
2023-01-15T07:56:05.076Z,92.31
2023-01-15T07:59:16.585Z,92.60
2023-01-15T08:02:28.164Z,92.83
2023-01-15T08:05:31.938Z,93.05
2023-01-15T08:08:43.177Z,93.28
2023-01-15T08:12:12.168Z,93.31
2023-01-15T08:15:23.341Z,93.42
2023-01-15T08:18:34.679Z,93.40
2023-01-15T08:21:45.902Z,93.40
2023-01-15T08:24:56.730Z,93.33
2023-01-15T08:28:07.813Z,93.48
2023-01-15T08:31:19.065Z,93.48
2023-01-15T08:34:29.932Z,93.55
2023-01-15T08:37:41.485Z,93.67
2023-01-15T08:40:58.991Z,93.65
2023-01-15T08:44:11.371Z,93.72
2023-01-15T08:47:22.598Z,93.80
2023-01-15T08:50:33.440Z,93.87
2023-01-15T08:53:44.746Z,93.82
2023-01-15T08:56:56.533Z,93.91
2023-01-15T09:00:08.464Z,93.85
2023-01-15T09:03:19.735Z,93.91
2023-01-15T09:06:30.926Z,93.88
2023-01-15T09:09:41.766Z,93.78
2023-01-15T09:12:53.063Z,93.73
2023-01-15T09:16:05.402Z,93.77
2023-01-15T09:19:20.491Z,93.78
2023-01-15T09:22:31.952Z,93.69
2023-01-15T09:25:44.022Z,93.67
2023-01-15T09:28:55.599Z,93.57
2023-01-15T09:32:08.394Z,93.54
2023-01-15T09:35:19.327Z,93.63
2023-01-15T09:38:30.147Z,93.69
2023-01-15T09:42:08.808Z,93.73
2023-01-15T09:45:23.739Z,93.72
2023-01-15T09:48:40.655Z,93.69
2023-01-15T09:51:54.774Z,93.69
2023-01-15T09:55:11.132Z,93.64
2023-01-15T09:58:23.263Z,93.50
2023-01-15T10:01:35.613Z,93.37
2023-01-15T10:04:49.649Z,93.27
2023-01-15T10:08:04.058Z,93.15
2023-01-15T10:11:50.678Z,92.98
2023-01-15T10:15:05.618Z,92.79
2023-01-15T10:18:19.777Z,92.66
2023-01-15T10:21:35.127Z,92.47
2023-01-15T10:24:49.844Z,92.14
2023-01-15T10:28:05.194Z,92.02
2023-01-15T10:31:18.946Z,91.71
2023-01-15T10:34:41.559Z,91.42
2023-01-15T10:37:49.028Z,91.04
2023-01-15T10:41:27.174Z,90.89
2023-01-15T10:44:43.669Z,90.97
2023-01-15T10:47:57.022Z,90.56
2023-01-15T10:51:19.080Z,90.34
2023-01-15T10:54:34.970Z,90.58
2023-01-15T10:57:56.467Z,90.48
2023-01-15T11:01:07.235Z,90.48
2023-01-15T11:04:18.505Z,90.63
2023-01-15T11:07:35.587Z,90.76
2023-01-15T11:10:46.991Z,90.66
2023-01-15T11:14:15.886Z,90.30
2023-01-15T11:17:47.262Z,90.16
2023-01-15T11:20:58.373Z,90.04
2023-01-15T11:24:29.980Z,89.54
2023-01-15T11:27:41.160Z,89.09
2023-01-15T11:30:56.937Z,89.11
2023-01-15T11:34:10.060Z,89.04
2023-01-15T11:37:20.821Z,89.04
2023-01-15T11:40:19.504Z,89.19
2023-01-15T11:43:48.490Z,89.37
2023-01-15T11:47:25.571Z,89.57
2023-01-15T11:50:45.600Z,89.55
2023-01-15T11:54:00.978Z,89.65
2023-01-15T11:57:01.661Z,89.83
2023-01-15T12:00:21.794Z,89.84
2023-01-15T12:03:36.651Z,89.60
2023-01-15T12:06:47.565Z,89.62
2023-01-15T12:10:10.492Z,89.77
2023-01-15T12:13:26.186Z,90.05
2023-01-15T12:16:42.385Z,90.31
2023-01-15T12:19:58.013Z,90.36
2023-01-15T12:23:19.835Z,90.54
2023-01-15T12:26:32.706Z,90.72
2023-01-15T12:29:47.337Z,90.64
2023-01-15T12:33:02.066Z,90.73
2023-01-15T12:36:15.408Z,90.89
2023-01-15T12:39:30.058Z,90.96
2023-01-15T12:43:00.150Z,90.95
2023-01-15T12:46:12.785Z,90.99
2023-01-15T12:49:32.844Z,90.87
2023-01-15T12:52:47.137Z,90.55
2023-01-15T12:56:01.455Z,90.39
2023-01-15T12:59:16.274Z,90.53
2023-01-15T13:02:31.109Z,90.75
2023-01-15T13:05:48.174Z,90.94
2023-01-15T13:09:02.979Z,91.07
2023-01-15T13:12:17.811Z,91.16
2023-01-15T13:15:32.383Z,91.15
2023-01-15T13:18:48.728Z,91.32
2023-01-15T13:22:01.696Z,91.29
2023-01-15T13:25:29.724Z,91.50
2023-01-15T13:28:55.636Z,91.73
2023-01-15T13:32:10.304Z,91.90
2023-01-15T13:35:28.431Z,91.87
2023-01-15T13:38:42.293Z,92.07
2023-01-15T13:42:11.728Z,92.13
2023-01-15T13:45:31.231Z,92.24
2023-01-15T13:48:45.747Z,92.32
2023-01-15T13:51:59.000Z,92.32
2023-01-15T13:55:14.995Z,92.22
2023-01-15T13:58:28.198Z,92.24
2023-01-15T14:01:39.691Z,92.24
2023-01-15T14:04:51.064Z,92.15
2023-01-15T14:08:03.180Z,92.07
2023-01-15T14:11:27.843Z,91.99
2023-01-15T14:14:56.260Z,92.05
2023-01-15T14:18:21.072Z,92.21
2023-01-15T14:21:47.302Z,92.19
2023-01-15T14:25:25.022Z,92.32
2023-01-15T14:28:51.562Z,92.32
2023-01-15T14:32:06.521Z,92.28
2023-01-15T14:35:20.945Z,92.26
2023-01-15T14:38:33.401Z,91.87
2023-01-15T14:41:59.026Z,91.71
2023-01-15T14:45:19.042Z,91.78
2023-01-15T14:48:39.632Z,91.82
2023-01-15T14:51:51.571Z,91.87
2023-01-15T14:55:02.218Z,92.02
2023-01-15T14:58:18.010Z,92.22
2023-01-15T15:01:38.811Z,92.18
2023-01-15T15:04:53.838Z,92.17
2023-01-15T15:08:05.036Z,92.09
2023-01-15T15:11:40.167Z,92.16
2023-01-15T15:14:56.307Z,92.15
2023-01-15T15:18:10.298Z,92.10
2023-01-15T15:21:23.755Z,92.25
2023-01-15T15:24:35.357Z,92.28
2023-01-15T15:27:38.567Z,92.45
2023-01-15T15:30:49.882Z,92.22
2023-01-15T15:34:00.080Z,92.11
2023-01-15T15:37:16.488Z,92.19
2023-01-15T15:40:34.559Z,92.26
2023-01-15T15:44:07.984Z,92.47
2023-01-15T15:47:40.572Z,92.54
2023-01-15T15:50:44.711Z,92.54
2023-01-15T15:54:05.462Z,92.59
2023-01-15T15:57:17.828Z,92.67
2023-01-15T16:00:31.653Z,92.70
2023-01-15T16:03:48.302Z,92.60
2023-01-15T16:06:59.402Z,92.56
2023-01-15T16:10:14.893Z,92.56
2023-01-15T16:13:27.667Z,92.64
2023-01-15T16:16:32.361Z,92.94
2023-01-15T16:19:43.954Z,92.99
2023-01-15T16:22:56.972Z,93.10
2023-01-15T16:26:13.804Z,93.34
2023-01-15T16:29:26.818Z,93.44
2023-01-15T16:32:39.398Z,93.43
2023-01-15T16:35:43.312Z,93.36
2023-01-15T16:38:54.669Z,93.20
2023-01-15T16:42:06.107Z,93.19
2023-01-15T16:49:11.548Z,93.08
2023-01-15T16:52:45.587Z,92.98
2023-01-15T16:55:57.676Z,92.97
2023-01-15T16:59:16.161Z,93.00
2023-01-15T17:02:30.079Z,92.86
2023-01-15T17:05:41.223Z,92.88
2023-01-15T17:08:52.771Z,92.84
2023-01-15T17:12:05.800Z,92.69
2023-01-15T17:15:37.333Z,92.71
2023-01-15T17:18:48.233Z,92.74
2023-01-15T17:21:58.960Z,92.85
2023-01-15T17:25:23.299Z,92.83
2023-01-15T17:28:35.435Z,92.87
2023-01-15T17:31:40.354Z,92.89
2023-01-15T17:34:51.357Z,93.08
2023-01-15T17:38:03.008Z,93.15
2023-01-15T17:41:14.462Z,93.12
2023-01-15T17:44:25.339Z,93.18
2023-01-15T17:47:36.557Z,93.15
2023-01-15T17:50:47.578Z,93.19
2023-01-15T17:53:58.893Z,93.17
2023-01-15T17:57:27.062Z,93.13
2023-01-15T18:00:56.080Z,93.26
2023-01-15T18:04:25.457Z,93.26
2023-01-15T18:07:39.463Z,93.40
2023-01-15T18:10:50.195Z,93.51
2023-01-15T18:14:01.061Z,93.53
2023-01-15T18:17:12.556Z,93.50
2023-01-15T18:20:23.329Z,93.35
2023-01-15T18:23:42.659Z,93.32
2023-01-15T18:26:53.491Z,93.28
2023-01-15T18:30:04.824Z,93.06
2023-01-15T18:33:15.866Z,92.98
2023-01-15T18:36:26.897Z,93.02
2023-01-15T18:39:38.490Z,93.24
2023-01-15T18:43:06.713Z,93.37
2023-01-15T18:46:35.489Z,93.37
2023-01-15T18:49:47.626Z,93.42
2023-01-15T18:52:58.477Z,93.69
2023-01-15T18:56:09.639Z,93.70
2023-01-15T18:59:20.484Z,93.53
2023-01-15T19:02:31.299Z,93.38
2023-01-15T19:05:42.088Z,93.31
2023-01-15T19:08:53.366Z,93.23
2023-01-15T19:12:04.664Z,93.22
2023-01-15T19:15:34.902Z,93.31
2023-01-15T19:18:52.697Z,93.19
2023-01-15T19:22:21.046Z,93.20
2023-01-15T19:25:33.413Z,93.12
2023-01-15T19:28:44.207Z,93.04
2023-01-15T19:31:55.238Z,92.78
2023-01-15T19:35:06.377Z,92.82
2023-01-15T19:38:17.656Z,92.89
2023-01-15T19:41:45.983Z,92.81
2023-01-15T19:45:14.756Z,92.70
2023-01-15T19:48:42.956Z,92.66
2023-01-15T19:52:11.607Z,92.73
2023-01-15T19:55:23.390Z,92.94
2023-01-15T19:58:35.237Z,93.11
2023-01-15T20:01:46.097Z,93.22
2023-01-15T20:04:56.974Z,93.19
2023-01-15T20:08:09.352Z,93.13
2023-01-15T20:11:20.300Z,93.08
2023-01-15T20:14:31.836Z,93.10
2023-01-15T20:17:42.654Z,93.01
2023-01-15T20:20:55.841Z,93.01
2023-01-15T20:24:07.181Z,93.00
2023-01-15T20:27:18.347Z,92.92
2023-01-15T20:30:23.755Z,92.96
2023-01-15T20:33:34.440Z,93.00
2023-01-15T20:36:45.181Z,92.99
2023-01-15T20:39:56.339Z,93.02
2023-01-15T20:43:24.394Z,92.93
2023-01-15T20:46:35.247Z,92.92
2023-01-15T20:49:46.022Z,92.92
2023-01-15T20:52:59.031Z,92.80
2023-01-15T20:56:03.061Z,92.84
2023-01-15T20:59:14.458Z,92.71
2023-01-15T21:02:25.571Z,92.60
2023-01-15T21:05:36.598Z,92.52
2023-01-15T21:08:47.461Z,92.53
2023-01-15T21:11:59.235Z,92.57
2023-01-15T21:15:10.760Z,92.66
2023-01-15T21:18:21.955Z,92.69
2023-01-15T21:21:32.756Z,92.79
2023-01-15T21:24:44.157Z,92.90
2023-01-15T21:27:54.999Z,92.85
2023-01-15T21:31:09.179Z,92.65
2023-01-15T21:34:19.921Z,92.71
2023-01-15T21:37:31.042Z,92.68
2023-01-15T21:40:42.295Z,92.63
2023-01-15T21:44:11.616Z,92.50
2023-01-15T21:47:22.414Z,92.49
2023-01-15T21:50:33.905Z,92.49
2023-01-15T21:53:44.659Z,92.46
2023-01-15T21:56:56.031Z,92.42
2023-01-15T22:00:07.877Z,92.32
2023-01-15T22:03:18.668Z,92.40
2023-01-15T22:06:29.794Z,92.52
2023-01-15T22:09:41.184Z,92.63
2023-01-15T22:12:52.110Z,92.72
2023-01-15T22:15:56.700Z,92.61
2023-01-15T22:19:07.558Z,92.60
2023-01-15T22:22:18.457Z,92.63
2023-01-15T22:25:29.270Z,92.66
2023-01-15T22:28:40.163Z,92.63
2023-01-15T22:31:51.006Z,92.59
2023-01-15T22:35:02.332Z,92.64
2023-01-15T22:38:13.107Z,92.77
2023-01-15T22:41:37.854Z,92.96
2023-01-15T22:44:44.131Z,93.04
2023-01-15T22:47:53.400Z,93.27
2023-01-15T22:51:04.822Z,93.41
2023-01-15T22:54:17.637Z,93.49
2023-01-15T22:57:31.756Z,93.60
2023-01-15T23:00:43.271Z,93.65
2023-01-15T23:03:54.910Z,93.41
2023-01-15T23:07:05.803Z,93.52
2023-01-15T23:10:16.837Z,93.73
2023-01-15T23:13:27.873Z,93.68
2023-01-15T23:16:39.370Z,93.62
2023-01-15T23:19:50.243Z,93.81
2023-01-15T23:23:01.595Z,93.84
2023-01-15T23:26:14.745Z,93.96
2023-01-15T23:29:25.572Z,93.80
2023-01-15T23:32:36.545Z,94.17
2023-01-15T23:35:48.184Z,94.36
2023-01-15T23:38:59.164Z,94.57
2023-01-15T23:42:28.688Z,94.51
2023-01-15T23:45:56.960Z,94.50
2023-01-15T23:49:09.283Z,94.52
2023-01-15T23:52:20.267Z,94.61
2023-01-15T23:55:31.222Z,94.67
2023-01-15T23:58:42.794Z,94.71
